Time,TemperatureF,DewpointF,PressureIn,WindDirection,WindDirectionDegrees,WindSpeedMPH,WindSpeedGustMPH,Humidity,HourlyPrecipIn,Conditions,Clouds,dailyrainin,SolarRadiationWatts/m^2,SoftwareType,DateUTC
2014-10-23 00:00:00,76.8,73.0,29.87,NW,323,0.0,0.0,88,0.00,,FEW025,0.00,0.00,VWS V14.00,2014-10-23 04:00:00,
2014-10-23 00:05:00,76.8,73.3,29.86,NW,323,0.0,1.0,89,0.00,,FEW025,0.00,0.00,VWS V14.00,2014-10-23 04:05:00,
2014-10-23 00:10:00,76.8,73.3,29.86,NW,323,1.0,1.0,89,0.00,,FEW025,0.00,0.00,VWS V14.00,2014-10-23 04:10:00,
2014-10-23 00:15:00,76.6,73.1,29.86,NW,323,2.0,2.0,89,0.00,,FEW025,0.00,0.00,VWS V14.00,2014-10-23 04:15:00,
2014-10-23 00:20:00,76.5,73.0,29.86,NW,323,1.0,1.0,89,0.00,,FEW025,0.00,0.00,VWS V14.00,2014-10-23 04:20:00,
2014-10-23 00:25:00,76.4,72.9,29.86,NW,323,0.0,0.0,89,0.00,,FEW025,0.00,0.00,VWS V14.00,2014-10-23 04:25:00,
2014-10-23 00:30:00,76.3,72.8,29.87,ESE,116,2.0,3.0,89,0.00,,FEW025,0.00,0.00,VWS V14.00,2014-10-23 04:30:00,
2014-10-23 00:35:00,76.2,72.7,29.87,SE,133,0.0,2.0,89,0.00,,FEW025,0.00,0.00,VWS V14.00,2014-10-23 04:35:00,
2014-10-23 00:40:00,76.1,72.6,29.87,SSE,151,1.0,2.0,89,0.00,,FEW025,0.00,0.00,VWS V14.00,2014-10-23 04:40:00,
2014-10-23 00:45:00,76.1,72.6,29.87,South,169,0.0,1.0,89,0.00,,FEW025,0.00,0.00,VWS V14.00,2014-10-23 04:45:00,
2014-10-23 00:50:00,76.2,72.7,29.86,South,169,0.0,0.0,89,0.00,,FEW025,0.00,0.00,VWS V14.00,2014-10-23 04:50:00,
2014-10-23 00:55:00,76.2,72.7,29.86,South,169,0.0,0.0,89,0.00,,FEW025,0.00,0.00,VWS V14.00,2014-10-23 04:55:00,
2014-10-23 01:00:00,76.2,72.7,29.86,South,169,0.0,1.0,89,0.00,,FEW025,0.00,0.00,VWS V14.00,2014-10-23 05:00:00,
2014-10-23 01:05:00,76.1,72.6,29.86,South,169,2.0,2.0,89,0.00,,FEW025,0.00,0.00,VWS V14.00,2014-10-23 05:05:00,
2014-10-23 01:10:00,76.1,73.0,29.86,SW,225,1.0,2.0,90,0.00,,FEW025,0.00,0.00,VWS V14.00,2014-10-23 05:10:00,
2014-10-23 01:15:00,76.0,72.9,29.86,SW,217,1.0,2.0,90,0.00,,FEW025,0.00,0.00,VWS V14.00,2014-10-23 05:15:00,
2014-10-23 01:20:00,75.9,73.1,29.86,SW,217,2.0,2.0,91,0.00,,FEW025,0.00,0.00,VWS V14.00,2014-10-23 05:20:00,
2014-10-23 01:25:00,75.8,73.0,29.86,SSW,208,0.0,1.0,91,0.00,,FEW025,0.00,0.00,VWS V14.00,2014-10-23 05:25:00,
2014-10-23 01:30:00,75.8,73.0,29.86,SSW,209,1.0,3.0,91,0.00,,FEW025,0.00,0.00,VWS V14.00,2014-10-23 05:30:00,
2014-10-23 01:35:00,75.8,73.0,29.86,SSW,209,0.0,0.0,91,0.00,,FEW025,0.00,0.00,VWS V14.00,2014-10-23 05:35:00,
2014-10-23 01:40:00,75.8,73.0,29.86,SSW,209,1.0,2.0,91,0.00,,FEW025,0.00,0.00,VWS V14.00,2014-10-23 05:40:00,
2014-10-23 01:45:00,75.7,73.2,29.85,SSW,211,2.0,4.0,92,0.00,,FEW025,0.00,0.00,VWS V14.00,2014-10-23 05:45:00,
2014-10-23 01:50:00,75.7,73.2,29.85,SSW,211,0.0,0.0,92,0.00,,FEW025,0.00,0.00,VWS V14.00,2014-10-23 05:50:00,
2014-10-23 01:55:00,75.7,73.2,29.85,SSW,212,1.0,2.0,92,0.00,,FEW025,0.00,0.00,VWS V14.00,2014-10-23 05:55:00,
2014-10-23 02:00:00,75.7,73.2,29.86,SW,223,0.0,1.0,92,0.00,,FEW025,0.00,0.00,VWS V14.00,2014-10-23 06:00:00,
2014-10-23 02:05:00,75.6,73.1,29.85,WSW,240,0.0,1.0,92,0.00,,FEW025,0.00,0.00,VWS V14.00,2014-10-23 06:05:00,
2014-10-23 02:10:00,75.6,73.1,29.86,WSW,240,0.0,2.0,92,0.00,,FEW025,0.00,0.00,VWS V14.00,2014-10-23 06:10:00,
2014-10-23 02:16:00,75.6,73.1,29.85,WSW,240,1.0,1.0,92,0.00,,FEW025,0.00,0.00,VWS V14.00,2014-10-23 06:16:00,
2014-10-23 02:20:00,75.7,73.2,29.85,NNE,17,0.0,2.0,92,0.00,,FEW025,0.00,0.00,VWS V14.00,2014-10-23 06:20:00,
2014-10-23 02:26:00,75.7,73.2,29.85,NNW,328,1.0,3.0,92,0.00,,FEW025,0.00,0.00,VWS V14.00,2014-10-23 06:26:00,
2014-10-23 02:31:00,75.8,73.3,29.85,NW,311,2.0,2.0,92,0.00,,FEW025,0.00,0.00,VWS V14.00,2014-10-23 06:31:00,
2014-10-23 02:36:00,75.8,73.3,29.85,West,266,2.0,3.0,92,0.00,,FEW025,0.00,0.00,VWS V14.00,2014-10-23 06:36:00,
2014-10-23 02:41:00,75.8,73.3,29.85,WSW,248,1.0,1.0,92,0.00,,FEW025,0.00,0.00,VWS V14.00,2014-10-23 06:41:00,
2014-10-23 02:46:00,75.9,73.4,29.85,WNW,289,2.0,2.0,92,0.00,,FEW025,0.00,0.00,VWS V14.00,2014-10-23 06:46:00,
2014-10-23 02:51:00,75.7,72.9,29.85,NW,316,1.0,3.0,91,0.00,,FEW025,0.00,0.00,VWS V14.00,2014-10-23 06:51:00,
2014-10-23 02:56:00,75.6,72.5,29.85,NW,305,1.0,3.0,90,0.00,,FEW025,0.00,0.00,VWS V14.00,2014-10-23 06:56:00,
2014-10-23 03:01:00,75.5,72.4,29.84,NW,305,2.0,2.0,90,0.00,,FEW025,0.00,0.00,VWS V14.00,2014-10-23 07:01:00,
2014-10-23 03:06:00,75.4,72.3,29.84,NNW,333,2.0,3.0,90,0.00,,FEW025,0.00,0.00,VWS V14.00,2014-10-23 07:06:00,
2014-10-23 03:11:00,75.3,72.2,29.84,NNW,330,5.0,6.0,90,0.00,,FEW025,0.00,0.00,VWS V14.00,2014-10-23 07:11:00,
2014-10-23 03:16:00,75.2,72.1,29.84,North,360,2.0,3.0,90,0.00,,FEW025,0.00,0.00,VWS V14.00,2014-10-23 07:16:00,
2014-10-23 03:21:00,75.1,72.0,29.84,NNE,15,4.0,5.0,90,0.00,,FEW025,0.00,0.00,VWS V14.00,2014-10-23 07:21:00,
2014-10-23 03:26:00,75.0,72.2,29.84,North,5,4.0,5.0,91,0.00,,FEW025,0.00,0.00,VWS V14.00,2014-10-23 07:26:00,
2014-10-23 03:31:00,74.9,72.4,29.83,NNE,24,3.0,3.0,92,0.00,,FEW025,0.00,0.00,VWS V14.00,2014-10-23 07:31:00,
2014-10-23 03:36:00,74.9,72.4,29.84,NNE,30,5.0,6.0,92,0.00,,FEW025,0.00,0.00,VWS V14.00,2014-10-23 07:36:00,
2014-10-23 03:41:00,74.7,72.2,29.84,NNW,341,4.0,7.0,92,0.00,,FEW025,0.00,0.00,VWS V14.00,2014-10-23 07:41:00,
2014-10-23 03:46:00,74.7,71.9,29.84,North,355,5.0,6.0,91,0.00,,FEW025,0.00,0.00,VWS V14.00,2014-10-23 07:46:00,
2014-10-23 03:51:00,74.7,71.9,29.84,NE,35,2.0,3.0,91,0.00,,FEW025,0.00,0.00,VWS V14.00,2014-10-23 07:51:00,
2014-10-23 03:56:00,74.7,72.2,29.84,NNE,13,3.0,4.0,92,0.00,,FEW025,0.00,0.00,VWS V14.00,2014-10-23 07:56:00,
2014-10-23 04:01:00,74.6,72.1,29.84,ENE,57,4.0,7.0,92,0.00,,FEW025,0.00,0.00,VWS V14.00,2014-10-23 08:01:00,
2014-10-23 04:06:00,74.5,71.7,29.84,NE,39,7.0,8.0,91,0.00,,FEW025,0.00,0.00,VWS V14.00,2014-10-23 08:06:00,
2014-10-23 04:11:00,74.5,71.7,29.83,ENE,65,7.0,7.0,91,0.00,,FEW025,0.00,0.00,VWS V14.00,2014-10-23 08:11:00,
2014-10-23 04:16:00,74.3,71.2,29.83,NE,39,7.0,11.0,90,0.00,,FEW025,0.00,0.00,VWS V14.00,2014-10-23 08:16:00,
2014-10-23 04:21:00,73.8,71.0,29.83,NNE,33,7.0,13.0,91,0.00,,FEW025,0.00,0.00,VWS V14.00,2014-10-23 08:21:00,
2014-10-23 04:26:00,73.5,71.0,29.83,NNE,30,5.0,9.0,92,0.00,,FEW025,0.00,0.00,VWS V14.00,2014-10-23 08:26:00,
2014-10-23 04:32:00,73.4,71.3,29.83,NE,40,5.0,7.0,93,0.00,,FEW025,0.00,0.00,VWS V14.00,2014-10-23 08:32:00,
2014-10-23 04:37:00,73.3,71.2,29.83,NE,50,5.0,9.0,93,0.00,,FEW025,0.00,0.00,VWS V14.00,2014-10-23 08:37:00,
2014-10-23 04:42:00,73.3,71.2,29.83,NE,42,5.0,9.0,93,0.00,,FEW025,0.01,0.00,VWS V14.00,2014-10-23 08:42:00,
2014-10-23 04:47:00,73.4,71.6,29.83,NE,46,4.0,6.0,94,0.00,,FEW025,0.01,0.00,VWS V14.00,2014-10-23 08:47:00,
2014-10-23 04:52:00,73.3,71.5,29.83,NE,42,5.0,7.0,94,0.00,,FEW025,0.01,0.00,VWS V14.00,2014-10-23 08:52:00,
2014-10-23 04:57:00,73.3,71.5,29.83,ENE,65,4.0,5.0,94,0.00,,FEW025,0.01,0.00,VWS V14.00,2014-10-23 08:57:00,
2014-10-23 05:02:00,73.3,71.5,29.83,NNE,27,3.0,4.0,94,0.00,,FEW025,0.01,0.00,VWS V14.00,2014-10-23 09:02:00,
2014-10-23 05:07:00,73.3,71.5,29.83,NE,51,4.0,5.0,94,0.00,,FEW025,0.01,0.00,VWS V14.00,2014-10-23 09:07:00,
2014-10-23 05:12:00,73.4,71.6,29.84,North,11,2.0,4.0,94,0.00,,FEW025,0.01,0.00,VWS V14.00,2014-10-23 09:12:00,
2014-10-23 05:17:00,73.4,71.6,29.84,NE,43,4.0,4.0,94,0.00,,FEW025,0.01,0.00,VWS V14.00,2014-10-23 09:17:00,
2014-10-23 05:22:00,73.4,71.6,29.84,NNE,14,2.0,4.0,94,0.00,,FEW025,0.01,0.00,VWS V14.00,2014-10-23 09:22:00,
2014-10-23 05:27:00,73.4,71.9,29.84,NE,37,4.0,4.0,95,0.00,,FEW025,0.01,0.00,VWS V14.00,2014-10-23 09:27:00,
2014-10-23 05:32:00,73.4,71.9,29.84,ENE,69,3.0,4.0,95,0.00,,FEW025,0.01,0.00,VWS V14.00,2014-10-23 09:32:00,
2014-10-23 05:37:00,73.4,71.9,29.84,NE,36,2.0,5.0,95,0.00,,FEW025,0.01,0.00,VWS V14.00,2014-10-23 09:37:00,
2014-10-23 05:42:00,73.3,71.8,29.84,North,9,2.0,4.0,95,0.00,,FEW025,0.01,0.00,VWS V14.00,2014-10-23 09:42:00,
2014-10-23 05:47:00,73.3,71.8,29.84,North,5,8.0,8.0,95,0.00,,FEW025,0.01,0.00,VWS V14.00,2014-10-23 09:47:00,
2014-10-23 05:52:00,73.2,71.7,29.84,North,350,5.0,5.0,95,0.00,,FEW025,0.01,0.00,VWS V14.00,2014-10-23 09:52:00,
2014-10-23 05:57:00,73.1,71.6,29.84,NNE,26,4.0,5.0,95,0.00,,FEW025,0.01,0.00,VWS V14.00,2014-10-23 09:57:00,
2014-10-23 06:02:00,73.2,71.7,29.84,NE,34,6.0,6.0,95,0.00,,FEW025,0.01,0.00,VWS V14.00,2014-10-23 10:02:00,
2014-10-23 06:07:00,73.1,71.6,29.84,NE,50,4.0,7.0,95,0.00,,FEW025,0.01,0.00,VWS V14.00,2014-10-23 10:07:00,
2014-10-23 06:12:00,73.2,71.7,29.84,NE,52,5.0,5.0,95,0.00,,FEW025,0.01,0.00,VWS V14.00,2014-10-23 10:12:00,
2014-10-23 06:17:00,73.2,71.7,29.84,ENE,57,3.0,7.0,95,0.00,,FEW025,0.01,0.00,VWS V14.00,2014-10-23 10:17:00,
2014-10-23 06:22:00,73.3,71.8,29.84,NNE,13,3.0,6.0,95,0.00,,FEW025,0.01,0.00,VWS V14.00,2014-10-23 10:22:00,
2014-10-23 06:28:00,73.3,71.8,29.84,NE,45,3.0,4.0,95,0.00,,FEW025,0.01,0.00,VWS V14.00,2014-10-23 10:28:00,
2014-10-23 06:33:00,73.3,71.8,29.84,NE,54,3.0,5.0,95,0.00,,FEW025,0.01,0.00,VWS V14.00,2014-10-23 10:33:00,
2014-10-23 06:38:00,73.4,71.9,29.84,NNE,31,4.0,4.0,95,0.00,,FEW025,0.01,0.00,VWS V14.00,2014-10-23 10:38:00,
2014-10-23 06:43:00,73.5,71.7,29.85,North,5,3.0,3.0,94,0.00,,FEW025,0.01,0.00,VWS V14.00,2014-10-23 10:43:00,
2014-10-23 06:48:00,73.6,71.8,29.85,NNE,24,3.0,4.0,94,0.00,,FEW025,0.01,0.00,VWS V14.00,2014-10-23 10:48:00,
2014-10-23 06:53:00,73.6,71.8,29.85,NNE,22,4.0,5.0,94,0.00,,FEW025,0.01,0.00,VWS V14.00,2014-10-23 10:53:00,
2014-10-23 06:58:00,73.7,71.9,29.85,NNE,32,3.0,5.0,94,0.00,,FEW025,0.01,0.00,VWS V14.00,2014-10-23 10:58:00,
2014-10-23 07:03:00,73.7,71.9,29.85,ENE,60,4.0,4.0,94,0.00,,FEW025,0.01,0.00,VWS V14.00,2014-10-23 11:03:00,
2014-10-23 07:08:00,73.7,71.9,29.85,NNE,26,5.0,6.0,94,0.00,,FEW025,0.01,0.00,VWS V14.00,2014-10-23 11:08:00,
2014-10-23 07:13:00,73.8,72.0,29.85,ENE,68,5.0,6.0,94,0.00,,FEW025,0.01,0.00,VWS V14.00,2014-10-23 11:13:00,
2014-10-23 07:18:00,73.8,72.0,29.85,ENE,78,5.0,5.0,94,0.00,,FEW025,0.01,0.00,VWS V14.00,2014-10-23 11:18:00,
2014-10-23 07:23:00,73.8,72.0,29.85,NE,48,7.0,9.0,94,0.00,,FEW025,0.02,0.00,VWS V14.00,2014-10-23 11:23:00,
2014-10-23 07:28:00,73.8,72.3,29.85,NE,49,6.0,8.0,95,0.51,,FEW025,0.04,0.00,VWS V14.00,2014-10-23 11:28:00,
2014-10-23 07:33:00,73.8,72.3,29.85,East,84,7.0,11.0,95,0.24,,-RA,0.06,0.00,VWS V14.00,2014-10-23 11:33:00,
2014-10-23 07:38:00,73.7,72.2,29.86,ENE,67,9.0,11.0,95,0.14,,-RA,0.07,0.00,VWS V14.00,2014-10-23 11:38:00,
2014-10-23 07:43:00,73.6,71.8,29.86,NE,52,5.0,10.0,94,0.07,,-RA,0.07,0.00,VWS V14.00,2014-10-23 11:43:00,
2014-10-23 07:48:00,73.5,71.7,29.86,NE,53,6.0,10.0,94,0.05,,-RA,0.07,0.00,VWS V14.00,2014-10-23 11:48:00,
2014-10-23 07:53:00,73.6,72.1,29.86,NNE,17,5.0,7.0,95,0.00,,-RA,0.07,0.00,VWS V14.00,2014-10-23 11:53:00,
2014-10-23 07:58:00,73.6,72.1,29.86,East,84,5.0,7.0,95,0.00,,-RA,0.08,0.00,VWS V14.00,2014-10-23 11:58:00,
2014-10-23 08:03:00,73.6,72.1,29.86,ENE,76,2.0,3.0,95,0.17,,-RA,0.10,0.00,VWS V14.00,2014-10-23 12:03:00,
2014-10-23 08:08:00,73.7,72.2,29.87,ENE,71,2.0,3.0,95,0.20,,-RA,0.11,0.00,VWS V14.00,2014-10-23 12:08:00,
2014-10-23 08:13:00,73.7,72.2,29.87,ENE,76,2.0,3.0,95,0.09,,-RA,0.12,0.00,VWS V14.00,2014-10-23 12:13:00,
2014-10-23 08:18:00,73.8,72.3,29.87,ENE,59,4.0,4.0,95,0.09,,-RA,0.12,0.00,VWS V14.00,2014-10-23 12:18:00,
2014-10-23 08:23:00,73.8,72.3,29.87,ENE,63,5.0,5.0,95,0.05,,-RA,0.12,5.00,VWS V14.00,2014-10-23 12:23:00,
2014-10-23 08:28:00,73.8,72.3,29.87,NE,45,3.0,5.0,95,0.04,,-RA,0.13,7.00,VWS V14.00,2014-10-23 12:28:00,
2014-10-23 08:33:00,73.8,72.3,29.87,NE,47,3.0,4.0,95,0.04,,-RA,0.13,7.00,VWS V14.00,2014-10-23 12:33:00,
2014-10-23 08:38:00,73.8,72.3,29.87,ENE,68,6.0,6.0,95,0.04,,-RA,0.13,7.00,VWS V14.00,2014-10-23 12:38:00,
2014-10-23 08:43:00,73.9,72.4,29.87,NE,51,4.0,6.0,95,0.04,,-RA,0.13,7.00,VWS V14.00,2014-10-23 12:43:00,
2014-10-23 08:49:00,73.9,72.1,29.88,NE,49,4.0,4.0,94,0.00,,-RA,0.13,7.00,VWS V14.00,2014-10-23 12:49:00,
2014-10-23 08:54:00,73.9,72.1,29.88,NNE,15,5.0,5.0,94,0.00,,-RA,0.13,5.00,VWS V14.00,2014-10-23 12:54:00,
2014-10-23 08:59:00,73.8,72.0,29.88,NNE,28,4.0,4.0,94,0.22,,-RA,0.15,5.00,VWS V14.00,2014-10-23 12:59:00,
2014-10-23 09:04:00,73.7,71.9,29.88,NNE,30,5.0,6.0,94,0.12,,-RA,0.16,5.00,VWS V14.00,2014-10-23 13:04:00,
2014-10-23 09:09:00,73.7,71.9,29.88,North,5,2.0,4.0,94,0.12,,-RA,0.17,5.00,VWS V14.00,2014-10-23 13:09:00,
2014-10-23 09:14:00,73.6,72.1,29.88,NNE,26,3.0,5.0,95,0.09,,-RA,0.17,7.00,VWS V14.00,2014-10-23 13:14:00,
2014-10-23 09:19:00,73.4,71.6,29.89,NNE,15,7.0,7.0,94,0.06,,-RA,0.18,7.00,VWS V14.00,2014-10-23 13:19:00,
2014-10-23 09:24:00,73.3,71.5,29.89,NE,54,5.0,6.0,94,0.06,,-RA,0.18,0.00,VWS V14.00,2014-10-23 13:24:00,
2014-10-23 09:29:00,73.3,71.5,29.89,NNW,344,2.0,6.0,94,0.07,,-RA,0.19,5.00,VWS V14.00,2014-10-23 13:29:00,
2014-10-23 09:34:00,73.3,71.8,29.89,NNE,17,4.0,5.0,95,0.08,,-RA,0.20,9.00,VWS V14.00,2014-10-23 13:34:00,
2014-10-23 09:39:00,73.3,71.8,29.89,NNE,19,2.0,4.0,95,0.08,,-RA,0.20,14.00,VWS V14.00,2014-10-23 13:39:00,
2014-10-23 09:44:00,73.3,71.8,29.89,NE,34,3.0,5.0,95,0.06,,-RA,0.21,19.00,VWS V14.00,2014-10-23 13:44:00,
2014-10-23 09:49:00,73.3,71.8,29.89,NE,36,3.0,4.0,95,0.06,,-RA,0.21,25.00,VWS V14.00,2014-10-23 13:49:00,
2014-10-23 09:54:00,73.5,72.0,29.90,ENE,61,5.0,5.0,95,0.05,,-RA,0.21,25.00,VWS V14.00,2014-10-23 13:54:00,
2014-10-23 09:59:00,73.6,72.1,29.90,NNE,22,3.0,4.0,95,0.00,,-RA,0.21,23.00,VWS V14.00,2014-10-23 13:59:00,
2014-10-23 10:04:00,73.5,72.0,29.90,NNE,32,5.0,7.0,95,0.00,,-RA,0.21,21.00,VWS V14.00,2014-10-23 14:04:00,
2014-10-23 10:09:00,73.6,72.1,29.90,NNE,26,7.0,11.0,95,0.00,,-RA,0.21,25.00,VWS V14.00,2014-10-23 14:09:00,
2014-10-23 10:14:00,73.6,72.1,29.90,North,9,10.0,11.0,95,0.00,,-RA,0.21,28.00,VWS V14.00,2014-10-23 14:14:00,
2014-10-23 10:19:00,73.6,71.8,29.90,NE,56,4.0,6.0,94,0.00,,-RA,0.21,30.00,VWS V14.00,2014-10-23 14:19:00,
2014-10-23 10:24:00,73.7,72.2,29.90,NE,36,6.0,8.0,95,0.00,,-RA,0.21,28.00,VWS V14.00,2014-10-23 14:24:00,
2014-10-23 10:29:00,73.8,72.3,29.90,NE,37,9.0,9.0,95,0.00,,-RA,0.21,25.00,VWS V14.00,2014-10-23 14:29:00,
2014-10-23 10:34:00,73.9,72.4,29.90,ENE,59,5.0,7.0,95,0.00,,RA,0.21,25.00,VWS V14.00,2014-10-23 14:34:00,
2014-10-23 10:39:00,74.0,72.5,29.90,NE,41,4.0,5.0,95,0.00,,RA,0.21,26.00,VWS V14.00,2014-10-23 14:39:00,
2014-10-23 10:44:00,74.0,72.2,29.90,North,5,4.0,6.0,94,0.00,,RA,0.22,14.00,VWS V14.00,2014-10-23 14:44:00,
2014-10-23 10:49:00,74.0,72.5,29.90,NNE,22,4.0,5.0,95,0.18,,RA,0.23,14.00,VWS V14.00,2014-10-23 14:49:00,
2014-10-23 10:54:00,74.1,72.6,29.90,NNE,24,4.0,5.0,95,1.26,,RA,0.30,16.00,VWS V14.00,2014-10-23 14:54:00,
2014-10-23 10:59:00,73.9,72.4,29.90,NE,35,6.0,7.0,95,0.30,,RA,0.41,21.00,VWS V14.00,2014-10-23 14:59:00,
2014-10-23 11:04:00,73.8,72.3,29.90,North,355,3.0,6.0,95,0.60,,RA,0.46,30.00,VWS V14.00,2014-10-23 15:04:00,
2014-10-23 11:09:00,73.9,72.7,29.90,North,355,6.0,6.0,96,0.32,,RA,0.50,30.00,VWS V14.00,2014-10-23 15:09:00,
2014-10-23 11:14:00,73.9,72.7,29.90,North,360,4.0,5.0,96,0.15,,RA,0.52,33.00,VWS V14.00,2014-10-23 15:14:00,
2014-10-23 11:19:00,74.1,72.9,29.90,NNW,338,4.0,4.0,96,0.22,,RA,0.53,39.00,VWS V14.00,2014-10-23 15:19:00,
2014-10-23 11:25:00,74.0,72.8,29.90,NNW,329,2.0,4.0,96,0.08,,RA,0.53,51.00,VWS V14.00,2014-10-23 15:25:00,
2014-10-23 11:30:00,74.1,72.9,29.90,North,11,3.0,5.0,96,0.05,,RA,0.53,65.00,VWS V14.00,2014-10-23 15:30:00,
2014-10-23 11:35:00,74.2,72.7,29.90,NNE,13,6.0,7.0,95,0.00,,BKN033,0.53,70.00,VWS V14.00,2014-10-23 15:35:00,
2014-10-23 11:40:00,74.2,72.7,29.90,NE,34,5.0,6.0,95,0.00,,BKN033,0.54,81.00,VWS V14.00,2014-10-23 15:40:00,
2014-10-23 11:45:00,74.5,72.7,29.90,NNE,30,5.0,11.0,94,0.00,,BKN033,0.54,88.00,VWS V14.00,2014-10-23 15:45:00,
2014-10-23 11:50:00,74.7,72.2,29.90,North,355,6.0,10.0,92,0.00,,BKN033,0.54,74.00,VWS V14.00,2014-10-23 15:50:00,
2014-10-23 11:55:00,74.8,72.3,29.90,ENE,64,13.0,13.0,92,0.00,,BKN033,0.54,62.00,VWS V14.00,2014-10-23 15:55:00,
2014-10-23 12:00:00,74.1,71.6,29.90,NNE,21,7.0,12.0,92,0.00,,BKN033,0.55,39.00,VWS V14.00,2014-10-23 16:00:00,
2014-10-23 12:05:00,73.7,71.6,29.90,North,360,2.0,6.0,93,0.00,,BKN033,0.55,30.00,VWS V14.00,2014-10-23 16:05:00,
2014-10-23 12:10:00,73.5,71.4,29.89,NNE,16,4.0,5.0,93,0.00,,BKN033,0.55,32.00,VWS V14.00,2014-10-23 16:10:00,
2014-10-23 12:15:00,73.4,71.3,29.89,North,350,2.0,6.0,93,0.00,,BKN033,0.55,39.00,VWS V14.00,2014-10-23 16:15:00,
2014-10-23 12:20:00,73.5,71.7,29.89,NNE,19,5.0,7.0,94,0.00,,BKN033,0.55,35.00,VWS V14.00,2014-10-23 16:20:00,
2014-10-23 12:25:00,73.7,71.9,29.89,NNE,26,4.0,5.0,94,0.00,,BKN033,0.55,32.00,VWS V14.00,2014-10-23 16:25:00,
2014-10-23 12:30:00,73.7,71.9,29.89,NNE,32,5.0,6.0,94,0.00,,BKN033,0.55,32.00,VWS V14.00,2014-10-23 16:30:00,
2014-10-23 12:35:00,73.7,71.6,29.89,North,5,4.0,6.0,93,0.00,,OVC024,0.55,35.00,VWS V14.00,2014-10-23 16:35:00,
2014-10-23 12:40:00,73.5,71.4,29.89,NNE,13,5.0,7.0,93,0.00,,OVC024,0.55,44.00,VWS V14.00,2014-10-23 16:40:00,
2014-10-23 12:45:00,73.5,71.7,29.89,ENE,61,7.0,9.0,94,0.00,,OVC024,0.55,42.00,VWS V14.00,2014-10-23 16:45:00,
2014-10-23 12:50:00,73.6,71.5,29.89,NNE,20,5.0,7.0,93,0.00,,OVC024,0.55,49.00,VWS V14.00,2014-10-23 16:50:00,
2014-10-23 12:55:00,73.6,71.5,29.88,NNE,24,8.0,11.0,93,0.00,,OVC024,0.55,74.00,VWS V14.00,2014-10-23 16:55:00,
2014-10-23 13:00:00,73.6,71.5,29.88,NE,35,9.0,11.0,93,0.00,,OVC024,0.55,98.00,VWS V14.00,2014-10-23 17:00:00,
2014-10-23 13:05:00,73.7,71.6,29.88,NE,55,9.0,12.0,93,0.00,,OVC024,0.55,97.00,VWS V14.00,2014-10-23 17:05:00,
2014-10-23 13:10:00,74.0,71.8,29.88,North,355,5.0,10.0,93,0.00,,OVC024,0.55,104.00,VWS V14.00,2014-10-23 17:10:00,
2014-10-23 13:15:00,73.9,71.4,29.87,NE,53,6.0,8.0,92,0.00,,OVC024,0.55,104.00,VWS V14.00,2014-10-23 17:15:00,
2014-10-23 13:20:00,73.8,71.3,29.87,NE,38,10.0,13.0,92,0.00,,OVC024,0.55,109.00,VWS V14.00,2014-10-23 17:20:00,
2014-10-23 13:25:00,74.0,71.5,29.87,NE,51,11.0,13.0,92,0.00,,OVC024,0.56,95.00,VWS V14.00,2014-10-23 17:25:00,
2014-10-23 13:30:00,73.9,71.1,29.87,NE,39,6.0,12.0,91,0.00,,OVC024,0.56,86.00,VWS V14.00,2014-10-23 17:30:00,
2014-10-23 13:35:00,74.0,71.2,29.86,NNE,30,9.0,11.0,91,0.00,,-RA,0.56,84.00,VWS V14.00,2014-10-23 17:35:00,
2014-10-23 13:40:00,74.2,71.4,29.86,NNE,22,5.0,7.0,91,0.00,,-RA,0.56,83.00,VWS V14.00,2014-10-23 17:40:00,
2014-10-23 13:45:00,74.4,71.9,29.86,East,81,7.0,7.0,92,0.00,,-RA,0.56,90.00,VWS V14.00,2014-10-23 17:45:00,
2014-10-23 13:50:00,74.5,71.4,29.86,NNE,25,6.0,10.0,90,0.00,,-RA,0.56,88.00,VWS V14.00,2014-10-23 17:50:00,
2014-10-23 13:56:00,74.6,71.2,29.86,ESE,113,7.0,15.0,89,0.00,,-RA,0.56,91.00,VWS V14.00,2014-10-23 17:56:00,
2014-10-23 14:00:00,74.6,71.5,29.86,NE,56,7.0,11.0,90,0.00,,-RA,0.56,91.00,VWS V14.00,2014-10-23 18:00:00,
2014-10-23 14:06:00,74.2,71.1,29.86,NE,48,5.0,11.0,90,0.00,,-RA,0.56,90.00,VWS V14.00,2014-10-23 18:06:00,
2014-10-23 14:11:00,74.1,71.3,29.85,NE,35,9.0,11.0,91,0.00,,-RA,0.56,90.00,VWS V14.00,2014-10-23 18:11:00,
2014-10-23 14:16:00,74.1,71.0,29.85,NE,42,5.0,11.0,90,0.00,,-RA,0.56,84.00,VWS V14.00,2014-10-23 18:16:00,
2014-10-23 14:21:00,73.9,70.8,29.85,NNE,27,7.0,10.0,90,0.00,,-RA,0.56,69.00,VWS V14.00,2014-10-23 18:21:00,
2014-10-23 14:26:00,73.9,70.8,29.85,North,5,4.0,7.0,90,0.00,,-RA,0.56,62.00,VWS V14.00,2014-10-23 18:26:00,
2014-10-23 14:31:00,73.9,71.1,29.85,NNE,14,4.0,7.0,91,0.00,,-RA,0.56,53.00,VWS V14.00,2014-10-23 18:31:00,
2014-10-23 14:36:00,74.0,71.2,29.85,NE,38,5.0,7.0,91,0.00,,-RA,0.56,49.00,VWS V14.00,2014-10-23 18:36:00,
2014-10-23 14:41:00,74.2,71.1,29.84,NNE,28,9.0,9.0,90,0.00,,-RA,0.56,58.00,VWS V14.00,2014-10-23 18:41:00,
2014-10-23 14:46:00,74.6,71.2,29.84,NE,50,6.0,7.0,89,0.00,,-RA,0.57,54.00,VWS V14.00,2014-10-23 18:46:00,
2014-10-23 14:51:00,75.0,70.9,29.84,NNE,16,5.0,7.0,87,0.00,,-RA,0.57,54.00,VWS V14.00,2014-10-23 18:51:00,
2014-10-23 14:56:00,75.2,70.4,29.84,NNE,27,10.0,13.0,85,0.00,,-RA,0.57,49.00,VWS V14.00,2014-10-23 18:56:00,
2014-10-23 15:01:00,75.6,70.8,29.84,NNE,12,4.0,7.0,85,0.00,,-RA,0.57,46.00,VWS V14.00,2014-10-23 19:01:00,